Flight Track Log - Related Links

Times and Time Zones

All times are in EDT time to prevent confusion due to time zone crossing. See the PDT4236 flight status page for this flight to view local times or setup timezone preferences in your user account.

Time Position Orientation Groundspeed Altitude Reporting Facility
EDT Latitude Longitude Course Direction KTS MPH feet Rate Location/Type
Sat 02:17:58 PM 35.1994 -80.9481 340° North 141 162 1,400  Level Atlanta Center
Sat 02:18:34 PM 35.1942 -80.9814 259° West 159 183 2,300 1,732 Climbing Atlanta Center
Sat 02:19:35 PM 35.1911 -81.0347 266° West 149 171 4,200 1,377 Climbing Atlanta Center
Sat 02:20:00 PM 35.3733 -81.0200 338° Northwest  Level FlightAware Approximate
Sat 02:20:36 PM 35.2417 -81.0456 350° North 217 250 5,100  Level Atlanta Center
Sat 02:21:00 PM 35.4436 -81.0458 347° North  Level FlightAware Approximate
Sat 02:21:56 PM 35.3144 -81.0431 North 226 260 7,000  Level Atlanta Center
Sat 02:22:00 PM 35.5154 -81.0663 347° North  Level FlightAware Approximate
Sat 02:22:56 PM 35.3731 -81.0461 358° North 221 254 8,400  Level Atlanta Center
Sat 02:23:00 PM 35.5811 -81.1046 340° North  Level FlightAware Approximate
Sat 02:23:56 PM 35.4314 -81.0489 358° North 211 243 10,000  Level Atlanta Center
Sat 02:24:56 PM 35.4861 -81.0700 343° North 206 237 11,500 1,450 Climbing Atlanta Center
Sat 02:25:56 PM 35.5453 -81.0933 342° North 206 237 12,900 1,450 Climbing Atlanta Center
Sat 02:26:56 PM 35.5978 -81.1144 342° North 206 237 14,400 1,400 Climbing Atlanta Center
Sat 02:27:56 PM 35.6442 -81.1333 342° North 201 231 15,700 1,200 Climbing Atlanta Center
Sat 02:28:56 PM 35.6947 -81.1519 343° North 190 219 16,800 1,100 Climbing Atlanta Center
Sat 02:29:56 PM 35.7453 -81.1731 341° North 190 219 17,900 600 Climbing Atlanta Center
Sat 02:30:56 PM 35.8000 -81.1967 341° North 190 219 18,000 50 Climbing Atlanta Center
Sat 02:31:56 PM 35.8633 -81.2228 342° North 210 242 18,000  Level Atlanta Center
Sat 02:32:56 PM 35.9306 -81.2486 343° North 234 269 18,000  Level Atlanta Center
Sat 02:33:56 PM 36.0000 -81.2769 342° North 251 289 18,000  Level Atlanta Center
Sat 02:34:56 PM 36.0694 -81.3028 343° North 256 295 18,000  Level Atlanta Center
Sat 02:35:56 PM 36.1369 -81.3392 336° Northwest 256 295 18,000  Level Atlanta Center
Sat 02:36:56 PM 36.2067 -81.3756 337° Northwest 262 302 18,000  Level Atlanta Center
Sat 02:37:56 PM 36.2742 -81.4119 337° Northwest 262 302 18,000  Level Atlanta Center
Sat 02:38:56 PM 36.3436 -81.4456 339° North 262 302 18,000  Level Atlanta Center
Sat 02:39:56 PM 36.4111 -81.4822 336° Northwest 255 293 18,000  Level Atlanta Center
Sat 02:40:56 PM 36.4725 -81.5189 334° Northwest 260 299 18,000  Level Atlanta Center
Sat 02:41:56 PM 36.5400 -81.5531 338° Northwest 260 299 18,000  Level Atlanta Center
Sat 02:42:56 PM 36.6139 -81.5972 334° Northwest 260 299 18,000  Level Atlanta Center
Sat 02:43:56 PM 36.6811 -81.6314 338° Northwest 260 299 18,000  Level Atlanta Center
Sat 02:44:56 PM 36.7508 -81.6708 336° Northwest 260 299 18,000  Level Atlanta Center
Sat 02:46:29 PM 36.8489 -81.7200 338° Northwest 267 307 18,000  Level Indianapolis Center
Sat 02:47:31 PM 36.9161 -81.7567 336° Northwest 265 305 18,000  Level Indianapolis Center
Sat 02:48:32 PM 36.9969 -81.8014 336° Northwest 270 311 18,000  Level Indianapolis Center
Sat 02:49:34 PM 37.0656 -81.8386 337° Northwest 267 307 18,000  Level Indianapolis Center
Sat 02:50:36 PM 37.1331 -81.8753 337° Northwest 264 304 18,000  Level Indianapolis Center
Sat 02:51:37 PM 37.1997 -81.9100 337° Northwest 260 299 18,000 -49 Level Indianapolis Center
Sat 02:52:39 PM 37.2667 -81.9478 336° Northwest 262 302 17,900 -195 Descending Indianapolis Center
Sat 02:53:40 PM 37.3358 -81.9847 337° Northwest 268 308 17,600 -488 Descending Indianapolis Center
Sat 02:54:42 PM 37.4064 -82.0239 336° Northwest 275 316 16,900 -919 Descending Indianapolis Center
Sat 02:55:44 PM 37.4922 -82.0711 336° Northwest 285 328 15,700 -1,073 Descending Indianapolis Center
Sat 02:56:45 PM 37.5650 -82.1106 337° Northwest 284 327 14,700 -1,171 Descending Indianapolis Center
Sat 02:57:47 PM 37.6372 -82.1494 337° Northwest 283 326 13,300 -1,452 Descending Indianapolis Center
Sat 02:58:49 PM 37.7100 -82.1900 336° Northwest 284 327 11,700 -1,512 Descending Indianapolis Center
Sat 02:59:50 PM 37.7806 -82.2300 336° Northwest 281 323 10,200 -1,659 Descending Indianapolis Center
Sat 03:00:52 PM 37.8489 -82.2686 336° Northwest 272 313 8,300 -1,805 Descending Indianapolis Center
Sat 03:01:53 PM 37.9322 -82.3142 337° Northwest 277 319 6,500 -1,561 Descending Indianapolis Center
Sat 03:02:55 PM 38.0006 -82.3531 336° Northwest 273 314 5,100 -1,355 Descending Indianapolis Center
Sat 03:03:57 PM 38.0653 -82.3897 336° Northwest 260 299 3,700 -1,024 Descending Indianapolis Center
Sat 03:04:58 PM 38.1253 -82.4194 339° North 255 293 3,000 -341 Descending Indianapolis Center
Sat 03:06:00 PM 38.1883 -82.4444 343° North 243 280 3,000 -195 Level Indianapolis Center
Sat 03:07:01 PM 38.2533 -82.4575 351° North 237 273 2,600 -439 Descending Indianapolis Center
Sat 03:08:03 PM 38.3258 -82.4736 350° North 223 257 2,100 -242 Descending Indianapolis Center
Sat 03:09:05 PM 38.3619 -82.5200 315° West 190 219 2,100 49 Level Indianapolis Center
Sat 03:10:06 PM 38.3875 -82.5836 297° West 201 231 2,200 98 Climbing Indianapolis Center

Login

Don't have an account? Register now (free) for customized features, flight alerts, and more!